KHVR/HVR METAR and TAF weather

Enter ICAO airport designator
Station Type Date Time Source
KHVR METAR 2019/10/15 20:53 UTC NOAA

KHVR 152053Z AUTO 08007KT 11/M01 A3010 RMK AO2 SLP209 T01061006 58033 $


Station Type Date Time Source
KHVR Decoded METAR 2019/10/15 20:53 UTC NOAA

HAVRE CITY-COUNTY AIRPORT, MT, United States (KHVR) 48-33N 109-46W 787M
Oct 15, 2019 - 04:53 PM EDT / 2019.10.15 2053 UTC
Wind: from the E (080 degrees) at 8 MPH (7 KT):0
Temperature: 51.1 F (10.6 C)
Dew Point: 30.9 F (-0.6 C)
Relative Humidity: 45%
Pressure (altimeter): 30.1 in. Hg (1019 hPa)
Pressure tendency: 0.10 inches (3.3 hPa) lower than three hours ago
ob: KHVR 152053Z AUTO 08007KT 11/M01 A3010 RMK AO2 SLP209 T01061006 58033
cycle: 21

Station Type Date Time Source
KHVR TAF 2019/10/15 18:22 UTC NOAA

TAF KHVR 151720Z 1518/1618 13009KT P6SM FEW150 FEW250
FM160700 19009KT P6SM SCT120 OVC180
FM160900 23012KT P6SM FEW120 SCT150
FM161700 24011G19KT P6SM SKC

Example: see airport list